createdAt,value
2018-04-26T00:00:57.678Z,99.90
2018-04-26T00:03:26.393Z,99.90
2018-04-26T00:05:55.860Z,99.90
2018-04-26T00:08:24.569Z,99.90
2018-04-26T00:10:53.236Z,99.90
2018-04-26T00:13:21.835Z,99.90
2018-04-26T00:15:51.028Z,99.90
2018-04-26T00:18:19.478Z,99.90
2018-04-26T00:20:47.944Z,99.90
2018-04-26T00:23:16.440Z,99.90
2018-04-26T00:25:44.875Z,99.90
2018-04-26T00:28:13.423Z,99.90
2018-04-26T00:30:42.496Z,99.90
2018-04-26T00:33:10.948Z,99.90
2018-04-26T00:35:39.501Z,99.90
2018-04-26T00:38:07.939Z,99.90
2018-04-26T00:40:36.821Z,99.90
2018-04-26T00:43:05.265Z,99.90
2018-04-26T00:45:33.680Z,99.90
2018-04-26T00:48:02.449Z,99.90
2018-04-26T00:50:31.189Z,99.90
2018-04-26T00:53:00.077Z,99.90
2018-04-26T00:55:28.764Z,99.90
2018-04-26T00:57:57.300Z,99.90
2018-04-26T01:00:26.049Z,99.90
2018-04-26T01:02:54.817Z,99.90
2018-04-26T01:05:24.092Z,99.90
2018-04-26T01:07:53.560Z,99.90
2018-04-26T01:10:22.009Z,99.90
2018-04-26T01:12:50.720Z,99.90
2018-04-26T01:15:19.329Z,99.90
2018-04-26T01:17:47.769Z,99.90
2018-04-26T01:20:16.325Z,99.90
2018-04-26T01:22:44.847Z,99.90
2018-04-26T01:25:13.373Z,99.90
2018-04-26T01:27:42.644Z,99.90
2018-04-26T01:30:11.126Z,99.90
2018-04-26T01:32:39.592Z,99.90
2018-04-26T01:35:08.049Z,99.90
2018-04-26T01:37:42.789Z,99.90
2018-04-26T01:40:11.233Z,99.90
2018-04-26T01:42:39.665Z,99.90
2018-04-26T01:45:08.362Z,99.90
2018-04-26T01:47:36.865Z,99.90
2018-04-26T01:50:06.741Z,99.90
2018-04-26T01:52:35.181Z,99.90
2018-04-26T01:55:03.606Z,99.90
2018-04-26T01:57:32.058Z,99.90
2018-04-26T02:00:00.752Z,99.90
2018-04-26T02:02:29.296Z,99.90
2018-04-26T02:04:58.634Z,99.90
2018-04-26T02:07:28.258Z,99.90
2018-04-26T02:09:56.701Z,99.90
2018-04-26T02:12:25.239Z,99.90
2018-04-26T02:14:54.456Z,99.90
2018-04-26T02:17:22.896Z,99.90
2018-04-26T02:19:51.374Z,99.90
2018-04-26T02:22:20.088Z,99.90
2018-04-26T02:24:48.806Z,99.90
2018-04-26T02:27:17.276Z,99.90
2018-04-26T02:29:45.934Z,99.90
2018-04-26T02:32:14.641Z,99.90
2018-04-26T02:34:43.344Z,99.90
2018-04-26T02:37:11.985Z,99.90
2018-04-26T02:39:41.311Z,99.90
2018-04-26T02:42:10.197Z,99.90
2018-04-26T02:44:38.812Z,99.90
2018-04-26T02:47:08.044Z,99.90
2018-04-26T02:49:36.780Z,99.90
2018-04-26T02:52:05.205Z,99.90
2018-04-26T02:54:33.781Z,99.90
2018-04-26T02:57:02.274Z,99.90
2018-04-26T02:59:31.637Z,99.90
2018-04-26T03:02:01.106Z,99.90
2018-04-26T03:04:29.645Z,99.90
2018-04-26T03:06:58.194Z,99.90
2018-04-26T03:09:27.200Z,99.90
2018-04-26T03:11:56.040Z,99.90
2018-04-26T03:14:24.806Z,99.90
2018-04-26T03:16:53.506Z,99.90
2018-04-26T03:19:22.120Z,99.90
2018-04-26T03:21:51.585Z,99.90
2018-04-26T03:24:20.213Z,99.90
2018-04-26T03:26:49.689Z,99.90
2018-04-26T03:29:18.125Z,99.90
2018-04-26T03:31:46.597Z,99.90
2018-04-26T03:34:15.065Z,99.90
2018-04-26T03:36:43.510Z,99.90
2018-04-26T03:39:12.271Z,99.90
2018-04-26T03:41:41.488Z,99.90
2018-04-26T03:44:10.185Z,99.90
2018-04-26T03:46:38.668Z,99.90
2018-04-26T03:49:07.381Z,99.90
2018-04-26T03:51:35.825Z,99.90
2018-04-26T03:54:04.252Z,99.90
2018-04-26T03:56:33.024Z,99.90
2018-04-26T03:59:01.784Z,99.90
2018-04-26T04:01:41.398Z,99.90
2018-04-26T04:04:21.118Z,99.90
2018-04-26T04:06:49.597Z,99.90
2018-04-26T04:09:18.298Z,99.90
2018-04-26T04:11:46.865Z,99.90
2018-04-26T04:14:15.525Z,99.90
2018-04-26T04:16:43.957Z,99.90
2018-04-26T04:19:13.043Z,99.90
2018-04-26T04:21:41.765Z,99.90
2018-04-26T04:24:09.975Z,99.90
2018-04-26T04:26:38.533Z,99.90
2018-04-26T04:29:07.377Z,99.90
2018-04-26T04:31:36.173Z,99.90
2018-04-26T04:34:04.772Z,99.90
2018-04-26T04:36:33.469Z,99.90
2018-04-26T04:39:01.912Z,99.90
2018-04-26T04:41:30.696Z,99.90
2018-04-26T04:43:59.892Z,99.90
2018-04-26T04:46:29.145Z,99.90
2018-04-26T04:48:57.598Z,99.90
2018-04-26T04:51:26.053Z,99.90
2018-04-26T04:53:54.484Z,99.90
2018-04-26T04:56:23.212Z,99.90
2018-04-26T04:58:51.910Z,99.90
2018-04-26T05:01:20.630Z,99.90
2018-04-26T05:03:49.102Z,99.90
2018-04-26T05:06:17.529Z,99.90
2018-04-26T05:08:45.963Z,99.90
2018-04-26T05:11:15.470Z,99.90
2018-04-26T05:13:44.214Z,99.90
2018-04-26T05:16:12.920Z,99.90
2018-04-26T05:18:41.131Z,99.90
2018-04-26T05:21:09.560Z,99.90
2018-04-26T05:23:38.004Z,99.90
2018-04-26T05:26:06.430Z,99.90
2018-04-26T05:28:35.121Z,99.90
2018-04-26T05:31:03.801Z,99.90
2018-04-26T05:33:32.487Z,99.90
2018-04-26T05:36:01.102Z,99.90
2018-04-26T05:38:29.845Z,99.90
2018-04-26T05:40:58.278Z,99.90
2018-04-26T05:43:27.925Z,99.90
2018-04-26T05:45:57.326Z,99.90
2018-04-26T05:48:26.255Z,99.90
2018-04-26T05:50:54.985Z,99.90
2018-04-26T05:53:23.720Z,99.90
2018-04-26T05:55:53.860Z,99.90
2018-04-26T05:58:23.309Z,99.90
2018-04-26T06:00:52.513Z,99.90
2018-04-26T06:03:21.219Z,99.90
2018-04-26T06:05:49.662Z,99.90
2018-04-26T06:08:18.372Z,99.90
2018-04-26T06:10:46.914Z,99.90
2018-04-26T06:13:15.430Z,99.90
2018-04-26T06:15:43.879Z,99.90
2018-04-26T06:18:12.569Z,99.90
2018-04-26T06:20:41.169Z,99.90
2018-04-26T06:23:09.548Z,99.90
2018-04-26T06:25:38.250Z,99.90
2018-04-26T06:28:06.700Z,99.90
2018-04-26T06:30:35.909Z,99.90
2018-04-26T06:33:04.673Z,99.90
2018-04-26T06:35:33.946Z,99.90
2018-04-26T06:38:02.805Z,99.90
2018-04-26T06:40:31.254Z,99.90
2018-04-26T06:43:00.447Z,99.90
2018-04-26T06:45:28.865Z,99.90
2018-04-26T06:47:57.548Z,99.90
2018-04-26T06:50:26.078Z,99.90
2018-04-26T06:52:54.516Z,99.90
2018-04-26T06:55:23.987Z,99.90
2018-04-26T06:57:52.980Z,99.90
2018-04-26T07:00:22.421Z,99.90
2018-04-26T07:02:51.776Z,99.90
2018-04-26T07:05:21.002Z,99.90
2018-04-26T07:07:49.436Z,99.90
2018-04-26T07:10:18.245Z,99.90
2018-04-26T07:12:47.126Z,99.90
2018-04-26T07:15:16.334Z,99.90
2018-04-26T07:17:45.061Z,99.90
2018-04-26T07:20:13.800Z,99.90
2018-04-26T07:22:42.521Z,99.90
2018-04-26T07:25:10.614Z,99.90
2018-04-26T07:27:39.329Z,99.90
2018-04-26T07:30:08.529Z,99.90
2018-04-26T07:32:37.149Z,99.90
2018-04-26T07:35:05.605Z,99.90
2018-04-26T07:37:34.181Z,99.90
2018-04-26T07:40:02.910Z,99.90
2018-04-26T07:42:31.353Z,99.90
2018-04-26T07:44:59.799Z,99.90
2018-04-26T07:47:28.267Z,99.90
2018-04-26T07:49:56.489Z,99.90
2018-04-26T07:52:25.340Z,99.90
2018-04-26T07:54:54.075Z,99.90
2018-04-26T07:57:22.772Z,99.90
2018-04-26T07:59:52.262Z,99.90
2018-04-26T08:02:20.975Z,99.90
2018-04-26T08:04:49.429Z,99.90
2018-04-26T08:07:18.132Z,99.90
2018-04-26T08:09:46.589Z,99.90
2018-04-26T08:12:15.884Z,99.90
2018-04-26T08:14:44.370Z,99.90
2018-04-26T08:17:12.801Z,99.90
2018-04-26T08:19:41.375Z,99.90
2018-04-26T08:22:10.091Z,99.90
2018-04-26T08:24:38.731Z,99.90
2018-04-26T08:27:08.392Z,99.90
2018-04-26T08:29:37.932Z,99.90
2018-04-26T08:32:07.526Z,99.90
2018-04-26T08:34:36.063Z,99.90
2018-04-26T08:37:03.943Z,99.90
2018-04-26T08:39:33.163Z,99.90
2018-04-26T08:42:01.864Z,99.90
2018-04-26T08:44:30.333Z,99.90
2018-04-26T08:47:00.062Z,99.90
2018-04-26T08:49:29.559Z,99.90
2018-04-26T08:51:59.035Z,99.90
2018-04-26T08:54:27.520Z,99.90
2018-04-26T08:56:55.956Z,99.90
2018-04-26T08:59:24.665Z,99.90
2018-04-26T09:01:53.361Z,99.90
2018-04-26T09:04:21.619Z,99.90
2018-04-26T09:06:50.191Z,99.90
2018-04-26T09:09:18.792Z,99.90
2018-04-26T09:11:47.358Z,99.90
2018-04-26T09:14:16.393Z,99.90
2018-04-26T09:16:45.105Z,99.90
2018-04-26T09:19:13.816Z,99.90
2018-04-26T09:21:42.524Z,99.90
2018-04-26T09:24:11.945Z,99.90
2018-04-26T09:26:40.440Z,99.90
2018-04-26T09:29:08.868Z,99.90
2018-04-26T09:31:37.868Z,99.90
2018-04-26T09:34:07.068Z,99.90
2018-04-26T09:36:36.357Z,99.90
2018-04-26T09:39:04.394Z,99.90
2018-04-26T09:41:32.846Z,99.90
2018-04-26T09:44:01.549Z,99.90
2018-04-26T09:46:30.010Z,99.90
2018-04-26T09:48:58.701Z,99.90
2018-04-26T09:51:27.205Z,99.90
2018-04-26T09:53:55.636Z,99.90
2018-04-26T09:56:24.437Z,99.90
2018-04-26T09:58:53.238Z,99.90
2018-04-26T10:01:28.425Z,99.90
2018-04-26T10:04:02.534Z,99.90
2018-04-26T10:06:31.161Z,99.90
2018-04-26T10:08:59.873Z,99.90
2018-04-26T10:11:28.653Z,99.90
2018-04-26T10:13:57.153Z,99.90
2018-04-26T10:16:26.592Z,99.90
2018-04-26T10:18:55.313Z,99.90
2018-04-26T10:21:23.742Z,99.90
2018-04-26T10:23:52.200Z,99.90
2018-04-26T10:26:20.913Z,99.90
2018-04-26T10:28:49.748Z,99.90
2018-04-26T10:31:18.201Z,99.90
2018-04-26T10:33:47.397Z,99.90
2018-04-26T10:36:16.904Z,99.90
2018-04-26T10:38:46.378Z,99.90
2018-04-26T10:41:14.856Z,99.90
2018-04-26T10:43:43.333Z,99.90
2018-04-26T10:46:11.809Z,99.90
2018-04-26T10:48:40.537Z,99.90
2018-04-26T10:51:08.990Z,99.90
2018-04-26T10:53:37.693Z,99.90
2018-04-26T10:56:06.409Z,99.90
2018-04-26T10:58:34.967Z,99.90
2018-04-26T11:01:03.445Z,99.90
2018-04-26T11:03:31.952Z,99.90
2018-04-26T11:06:00.392Z,99.90
2018-04-26T11:08:29.593Z,99.90
2018-04-26T11:10:59.121Z,99.90
2018-04-26T11:13:27.808Z,99.90
2018-04-26T11:15:57.095Z,99.90
2018-04-26T11:18:25.527Z,99.90
2018-04-26T11:20:53.975Z,99.90
2018-04-26T11:23:22.412Z,99.90
2018-04-26T11:25:51.952Z,99.90
2018-04-26T11:28:20.424Z,99.90
2018-04-26T11:30:49.268Z,99.90
2018-04-26T11:33:18.818Z,99.90
2018-04-26T11:35:47.267Z,99.90
2018-04-26T11:38:15.899Z,99.90
2018-04-26T11:40:44.651Z,99.90
2018-04-26T11:43:13.372Z,99.90
2018-04-26T11:45:41.843Z,99.90
2018-04-26T11:48:10.304Z,99.90
2018-04-26T11:50:38.860Z,99.90
2018-04-26T11:53:07.588Z,99.90
2018-04-26T11:55:36.156Z,99.90
2018-04-26T11:58:04.290Z,99.90
2018-04-26T12:00:32.712Z,99.90
2018-04-26T12:03:02.920Z,99.90
2018-04-26T12:05:31.644Z,99.90
2018-04-26T12:08:01.096Z,99.90
2018-04-26T12:10:30.309Z,99.90
2018-04-26T12:12:59.008Z,99.90
2018-04-26T12:15:27.613Z,99.90
2018-04-26T12:17:56.372Z,99.90
2018-04-26T12:20:24.816Z,99.90
2018-04-26T12:22:54.332Z,99.90
2018-04-26T12:25:23.840Z,99.90
2018-04-26T12:27:52.563Z,99.90
2018-04-26T12:30:21.128Z,99.90
2018-04-26T12:32:49.842Z,99.90
2018-04-26T12:35:18.496Z,99.90
2018-04-26T12:37:46.926Z,99.90
2018-04-26T12:40:15.365Z,99.90
2018-04-26T12:42:44.268Z,99.90
2018-04-26T12:45:12.712Z,99.90
2018-04-26T12:47:41.178Z,99.90
2018-04-26T12:50:10.387Z,99.90
2018-04-26T12:52:38.979Z,99.90
2018-04-26T12:55:08.364Z,99.90
2018-04-26T12:57:37.225Z,99.90
2018-04-26T13:00:05.001Z,99.90
2018-04-26T13:02:34.357Z,99.90
2018-04-26T13:05:03.529Z,99.90
2018-04-26T13:07:32.416Z,99.90
2018-04-26T13:10:01.686Z,99.90
2018-04-26T13:12:30.176Z,99.90
2018-04-26T13:14:58.816Z,99.90
2018-04-26T13:17:28.594Z,99.90
2018-04-26T13:19:57.469Z,99.90
2018-04-26T13:22:26.685Z,99.90
2018-04-26T13:24:55.399Z,99.90
2018-04-26T13:27:24.121Z,99.90
2018-04-26T13:29:52.830Z,99.90
2018-04-26T13:32:21.656Z,99.90
2018-04-26T13:34:50.117Z,99.90
2018-04-26T13:37:18.548Z,99.90
2018-04-26T13:39:47.291Z,99.10
2018-04-26T13:42:16.654Z,99.90
2018-04-26T13:44:45.877Z,99.90
2018-04-26T13:47:15.344Z,99.90
2018-04-26T13:49:44.566Z,99.90
2018-04-26T13:52:13.028Z,99.90
2018-04-26T13:54:41.903Z,98.50
2018-04-26T13:57:11.053Z,99.10
2018-04-26T13:59:39.497Z,98.30
2018-04-26T14:02:08.634Z,99.10
2018-04-26T14:04:37.151Z,98.70
2018-04-26T14:07:05.184Z,99.10
2018-04-26T14:09:33.926Z,98.70
2018-04-26T14:12:03.439Z,98.70
2018-04-26T14:14:31.934Z,98.80
2018-04-26T14:17:00.401Z,98.60
2018-04-26T14:19:29.101Z,98.90
2018-04-26T14:21:57.553Z,98.60
2018-04-26T14:24:26.309Z,99.10
2018-04-26T14:26:54.782Z,98.80
2018-04-26T14:29:24.263Z,98.00
2018-04-26T14:31:53.654Z,96.90
2018-04-26T14:34:23.123Z,96.10
2018-04-26T14:36:51.817Z,96.10
2018-04-26T14:39:21.035Z,96.30
2018-04-26T14:41:49.131Z,96.30
2018-04-26T14:44:18.597Z,96.00
2018-04-26T14:46:47.325Z,96.00
2018-04-26T14:49:15.773Z,95.70
2018-04-26T14:51:44.205Z,95.70
2018-04-26T14:54:12.922Z,95.10
2018-04-26T14:56:42.237Z,95.20
2018-04-26T14:59:10.888Z,95.20
2018-04-26T15:01:39.489Z,94.70
2018-04-26T15:04:07.917Z,95.30
2018-04-26T15:06:36.474Z,95.90
2018-04-26T15:09:04.233Z,96.40
2018-04-26T15:11:32.688Z,94.70
2018-04-26T15:14:01.859Z,94.50
2018-04-26T15:16:30.371Z,94.60
2018-04-26T15:18:58.831Z,93.40
2018-04-26T15:21:28.305Z,91.40
2018-04-26T15:23:56.742Z,91.40
2018-04-26T15:26:25.436Z,87.50
2018-04-26T15:28:54.056Z,83.90
2018-04-26T15:31:22.776Z,87.50
2018-04-26T15:33:51.333Z,84.20
2018-04-26T15:36:20.053Z,83.40
2018-04-26T15:38:48.493Z,88.20
2018-04-26T15:41:16.946Z,85.10
2018-04-26T15:43:46.432Z,85.50
2018-04-26T15:46:14.908Z,85.40
2018-04-26T15:48:43.363Z,88.90
2018-04-26T15:51:11.970Z,87.80
2018-04-26T15:53:51.565Z,86.80
2018-04-26T15:56:31.037Z,88.00
2018-04-26T15:59:10.961Z,88.40
2018-04-26T16:05:26.473Z,90.50
2018-04-26T16:08:11.569Z,88.70
2018-04-26T16:10:57.299Z,89.60
2018-04-26T16:13:43.533Z,92.30
2018-04-26T16:16:37.767Z,92.40
2018-04-26T16:19:26.556Z,92.80
2018-04-26T16:22:11.867Z,93.00
2018-04-26T16:24:53.714Z,92.80
2018-04-26T16:27:38.951Z,93.00
2018-04-26T16:30:18.780Z,92.50
2018-04-26T16:33:03.721Z,93.60
2018-04-26T16:35:43.440Z,93.90
2018-04-26T16:38:23.050Z,93.90
2018-04-26T16:40:51.473Z,94.00
2018-04-26T16:43:20.190Z,94.40
2018-04-26T16:45:48.630Z,94.90
2018-04-26T16:48:17.544Z,95.10
2018-04-26T16:50:46.026Z,95.00
2018-04-26T16:53:14.748Z,95.50
2018-04-26T16:55:42.853Z,95.60
2018-04-26T16:58:11.304Z,96.60
2018-04-26T17:00:40.255Z,96.30
2018-04-26T17:03:08.844Z,95.50
2018-04-26T17:05:37.280Z,96.00
2018-04-26T17:08:06.734Z,96.80
2018-04-26T17:10:35.193Z,96.80
2018-04-26T17:13:04.367Z,97.00
2018-04-26T17:15:33.060Z,97.00
2018-04-26T17:18:02.399Z,98.20
2018-04-26T17:20:31.936Z,98.00
2018-04-26T17:23:00.468Z,98.00
2018-04-26T17:25:29.164Z,98.30
2018-04-26T17:27:58.085Z,98.10
2018-04-26T17:30:26.702Z,98.50
2018-04-26T17:32:55.605Z,98.80
2018-04-26T17:35:24.494Z,98.70
2018-04-26T17:37:53.217Z,99.00
2018-04-26T17:40:21.651Z,99.40
2018-04-26T17:42:51.045Z,99.90
2018-04-26T17:45:20.250Z,99.60
2018-04-26T17:47:48.982Z,99.60
2018-04-26T17:50:18.485Z,99.90
2018-04-26T17:52:48.240Z,99.90
2018-04-26T17:55:17.164Z,99.90
2018-04-26T17:57:45.607Z,99.90
2018-04-26T18:00:14.317Z,99.90
2018-04-26T18:02:42.909Z,99.90
2018-04-26T18:05:11.657Z,99.90
2018-04-26T18:07:40.195Z,99.90
2018-04-26T18:10:08.722Z,99.90
2018-04-26T18:12:37.316Z,99.90
2018-04-26T18:15:06.024Z,99.90
2018-04-26T18:17:34.721Z,99.90
2018-04-26T18:20:08.571Z,99.90
2018-04-26T18:22:32.885Z,99.90
2018-04-26T18:25:01.674Z,99.90
2018-04-26T18:27:30.290Z,99.90
2018-04-26T18:29:59.669Z,99.90
2018-04-26T18:32:28.095Z,99.90
2018-04-26T18:34:57.150Z,99.90
2018-04-26T18:37:25.778Z,99.90
2018-04-26T18:39:54.463Z,99.90
2018-04-26T18:42:23.184Z,99.90
2018-04-26T18:44:51.786Z,99.90
2018-04-26T18:47:20.226Z,99.90
2018-04-26T18:49:48.861Z,99.90
2018-04-26T18:52:18.460Z,99.90
2018-04-26T18:54:47.169Z,99.90
2018-04-26T18:57:16.726Z,99.90
2018-04-26T18:59:45.456Z,99.90
2018-04-26T19:02:14.189Z,99.90
2018-04-26T19:04:43.388Z,99.90
2018-04-26T19:07:12.692Z,99.90
2018-04-26T19:09:41.908Z,99.90
2018-04-26T19:12:10.348Z,99.90
2018-04-26T19:14:38.878Z,99.90
2018-04-26T19:17:07.350Z,99.90
2018-04-26T19:19:35.801Z,99.90
2018-04-26T19:22:04.780Z,99.90
2018-04-26T19:24:33.580Z,99.90
2018-04-26T19:27:02.081Z,99.90
2018-04-26T19:29:31.086Z,99.90
2018-04-26T19:31:59.520Z,99.90
2018-04-26T19:34:27.956Z,99.90
2018-04-26T19:36:56.415Z,99.90
2018-04-26T19:39:24.926Z,99.90
2018-04-26T19:41:53.791Z,99.90
2018-04-26T19:44:22.548Z,99.90
2018-04-26T19:46:51.840Z,99.90
2018-04-26T19:49:21.049Z,99.90
2018-04-26T19:51:50.277Z,99.90
2018-04-26T19:54:19.744Z,99.90
2018-04-26T19:56:48.488Z,99.90
2018-04-26T19:59:16.920Z,99.90
2018-04-26T20:01:45.528Z,99.90
2018-04-26T20:04:15.014Z,99.90
2018-04-26T20:06:43.524Z,99.90
2018-04-26T20:09:12.140Z,99.90
2018-04-26T20:11:40.618Z,99.90
2018-04-26T20:14:10.164Z,99.90
2018-04-26T20:16:38.858Z,99.90
2018-04-26T20:19:07.610Z,99.90
2018-04-26T20:21:36.309Z,99.90
2018-04-26T20:24:05.569Z,99.90
2018-04-26T20:26:34.479Z,99.90
2018-04-26T20:29:03.148Z,99.90
2018-04-26T20:31:31.499Z,99.90
2018-04-26T20:34:00.233Z,99.90
2018-04-26T20:36:28.972Z,99.90
2018-04-26T20:38:57.433Z,99.90
2018-04-26T20:41:25.286Z,99.90
2018-04-26T20:43:53.647Z,99.90
2018-04-26T20:46:22.331Z,99.90
2018-04-26T20:48:51.041Z,99.90
2018-04-26T20:51:19.477Z,99.90
2018-04-26T20:53:48.052Z,99.90
2018-04-26T20:56:16.541Z,99.90
2018-04-26T20:58:45.056Z,99.90
2018-04-26T21:01:13.504Z,99.90
2018-04-26T21:03:41.632Z,99.90
2018-04-26T21:06:10.385Z,99.90
2018-04-26T21:08:38.912Z,99.90
2018-04-26T21:11:07.338Z,99.90
2018-04-26T21:13:36.566Z,99.90
2018-04-26T21:16:05.208Z,99.90
2018-04-26T21:18:33.916Z,99.90
2018-04-26T21:21:02.624Z,99.90
2018-04-26T21:23:31.309Z,99.90
2018-04-26T21:25:59.790Z,99.90
2018-04-26T21:28:29.276Z,99.90
2018-04-26T21:30:58.560Z,99.90
2018-04-26T21:33:27.156Z,99.90
2018-04-26T21:35:55.671Z,99.90
2018-04-26T21:38:24.141Z,99.90
2018-04-26T21:40:52.598Z,99.90
2018-04-26T21:43:21.044Z,99.90
2018-04-26T21:45:49.501Z,99.90
2018-04-26T21:48:18.214Z,99.90
2018-04-26T21:50:52.245Z,99.90
2018-04-26T21:53:26.145Z,99.90
2018-04-26T21:56:00.806Z,99.90
2018-04-26T21:58:34.689Z,99.90
2018-04-26T22:01:08.450Z,99.90
2018-04-26T22:03:42.347Z,99.90
2018-04-26T22:06:11.358Z,99.90
2018-04-26T22:08:39.902Z,99.90
2018-04-26T22:11:08.332Z,99.90
2018-04-26T22:13:36.844Z,99.90
2018-04-26T22:16:05.278Z,99.90
2018-04-26T22:18:34.026Z,99.90
2018-04-26T22:21:02.588Z,99.90
2018-04-26T22:23:31.155Z,99.90
2018-04-26T22:26:00.379Z,99.90
2018-04-26T22:28:28.811Z,99.90
2018-04-26T22:30:57.259Z,99.90
2018-04-26T22:33:26.609Z,99.90
2018-04-26T22:35:55.083Z,99.90
2018-04-26T22:38:23.530Z,99.90
2018-04-26T22:40:51.969Z,99.90
2018-04-26T22:43:21.244Z,99.90
2018-04-26T22:45:49.954Z,99.90
2018-04-26T22:48:18.392Z,99.90
2018-04-26T22:50:46.868Z,99.90
2018-04-26T22:53:15.322Z,99.90
2018-04-26T22:55:43.776Z,99.90
2018-04-26T22:58:12.504Z,99.90
2018-04-26T23:00:40.947Z,99.90
2018-04-26T23:03:09.426Z,99.90
2018-04-26T23:05:38.904Z,99.90
2018-04-26T23:08:07.621Z,99.90
2018-04-26T23:10:36.335Z,99.90
2018-04-26T23:13:05.311Z,99.90
2018-04-26T23:15:34.050Z,99.90
2018-04-26T23:18:02.740Z,99.90
2018-04-26T23:20:31.226Z,99.90
2018-04-26T23:22:59.913Z,99.90
2018-04-26T23:25:28.370Z,99.90
2018-04-26T23:27:57.078Z,99.90
2018-04-26T23:30:25.794Z,99.90
2018-04-26T23:32:54.479Z,99.90
2018-04-26T23:35:22.930Z,99.90
2018-04-26T23:37:51.722Z,99.90
2018-04-26T23:40:20.158Z,99.90
2018-04-26T23:42:48.833Z,99.90
2018-04-26T23:45:17.536Z,99.90
2018-04-26T23:47:46.731Z,99.90
2018-04-26T23:50:15.432Z,99.90
2018-04-26T23:52:43.903Z,99.90
2018-04-26T23:55:12.909Z,99.90
2018-04-26T23:57:41.625Z,99.90
